Time;durP1;ratioP1;P1;durP2;ratioP2;P2;SDS_P1;SDS_P2;PMS_P1;PMS_P2;Temp;Humidity;BMP_temperature;BMP_pressure;BME280_temperature;BME280_humidity;BME280_pressure;Samples;Min_cycle;Max_cycle;Signal;HPM_P1;HPM_P2
2022/04/07 00:03:11;;;;;;;6.75;3.78;;;10.60;86.60;;;;;;5126374;27;20391;-58
2022/04/07 00:05:37;;;;;;;5.90;4.20;;;10.60;87.30;;;;;;5120243;28;20027;-57
2022/04/07 00:08:03;;;;;;;4.30;3.33;;;10.50;87.60;;;;;;5120682;28;20029;-58
2022/04/07 00:10:29;;;;;;;3.70;3.38;;;10.50;87.80;;;;;;5119413;28;20058;-59
2022/04/07 00:12:55;;;;;;;4.68;3.70;;;10.50;88.10;;;;;;5101249;28;20027;-59
2022/04/07 00:15:22;;;;;;;4.57;3.63;;;10.50;88.30;;;;;;5113117;28;20058;-58
2022/04/07 00:17:48;;;;;;;8.05;3.75;;;10.50;88.30;;;;;;5110880;28;20028;-58
2022/04/07 00:20:14;;;;;;;4.28;3.40;;;10.50;88.40;;;;;;5112543;28;20504;-61
2022/04/07 00:22:41;;;;;;;4.60;3.63;;;10.40;88.20;;;;;;5116889;28;20066;-61
2022/04/07 00:25:07;;;;;;;6.88;4.25;;;10.40;88.30;;;;;;5116625;28;20072;-60
2022/04/07 00:27:33;;;;;;;6.10;3.70;;;10.50;88.40;;;;;;5119968;28;20235;-59
2022/04/07 00:29:58;;;;;;;3.72;3.33;;;10.50;88.40;;;;;;5087650;28;20114;-59
2022/04/07 00:32:24;;;;;;;6.75;3.42;;;10.50;88.30;;;;;;5106808;28;20073;-59
2022/04/07 00:34:54;;;;;;;4.88;4.00;;;10.50;88.50;;;;;;5113302;28;20501;-59
2022/04/07 00:37:23;;;;;;;4.68;3.80;;;10.40;88.50;;;;;;5079922;28;20040;-59
2022/04/07 00:39:50;;;;;;;4.13;3.50;;;10.50;88.40;;;;;;5115359;28;20036;-59
2022/04/07 00:42:17;;;;;;;4.40;3.60;;;10.40;88.40;;;;;;5112076;28;20453;-61
2022/04/07 00:44:43;;;;;;;5.85;3.72;;;10.40;88.40;;;;;;5109249;28;20517;-61
2022/04/07 00:47:12;;;;;;;6.38;3.90;;;10.40;88.50;;;;;;5109716;28;20036;-61
2022/04/07 00:49:37;;;;;;;6.22;3.50;;;10.40;88.50;;;;;;5118044;28;20020;-61
2022/04/07 00:52:04;;;;;;;5.35;3.70;;;10.40;88.60;;;;;;5107869;28;20062;-61
2022/04/07 00:54:30;;;;;;;4.40;3.38;;;10.40;88.50;;;;;;5098177;28;20394;-61
2022/04/07 00:56:57;;;;;;;7.30;3.72;;;10.40;88.50;;;;;;5114482;28;20027;-61
2022/04/07 00:59:23;;;;;;;6.93;3.33;;;10.40;88.40;;;;;;5105885;28;20024;-60
2022/04/07 01:01:49;;;;;;;4.78;2.90;;;10.40;88.10;;;;;;5089383;28;20066;-61
2022/04/07 01:04:15;;;;;;;7.75;3.40;;;10.40;88.00;;;;;;5115699;28;20066;-61
2022/04/07 01:06:47;;;;;;;4.72;3.05;;;10.40;87.70;;;;;;5123017;28;20041;-60
2022/04/07 01:09:15;;;;;;;4.40;2.83;;;10.40;87.60;;;;;;5114485;27;20115;-59
2022/04/07 01:11:42;;;;;;;5.32;2.30;;;10.40;87.40;;;;;;5109536;28;20519;-58
2022/04/07 01:14:07;;;;;;;5.13;2.95;;;10.40;87.10;;;;;;5114244;28;20038;-58
2022/04/07 01:16:34;;;;;;;4.72;2.10;;;10.40;87.00;;;;;;5099564;28;20486;-58
2022/04/07 01:19:00;;;;;;;9.30;2.33;;;10.40;86.90;;;;;;5112255;28;20043;-60
2022/04/07 01:21:27;;;;;;;5.53;2.00;;;10.40;86.90;;;;;;5082918;28;20028;-59
2022/04/07 01:24:03;;;;;;;5.18;1.90;;;10.40;86.60;;;;;;5097968;28;20032;-58
2022/04/07 01:26:31;;;;;;;7.57;2.15;;;10.40;86.40;;;;;;5092400;28;20031;-58
2022/04/07 01:28:59;;;;;;;7.53;2.20;;;10.40;86.50;;;;;;5094564;28;20023;-59
2022/04/07 01:31:25;;;;;;;5.45;1.98;;;10.40;86.70;;;;;;5097279;28;20028;-59
2022/04/07 01:33:50;;;;;;;10.75;2.38;;;10.30;87.10;;;;;;5108111;28;20039;-60
2022/04/07 01:36:17;;;;;;;14.27;2.90;;;10.30;87.60;;;;;;5096180;28;20502;-58
2022/04/07 01:38:45;;;;;;;7.22;2.17;;;10.20;88.30;;;;;;5107898;28;20020;-58
2022/04/07 01:41:12;;;;;;;9.55;2.47;;;10.10;89.00;;;;;;5080011;28;20032;-58
2022/04/07 01:43:40;;;;;;;8.48;2.10;;;10.10;89.30;;;;;;5106179;28;20030;-61
2022/04/07 01:46:09;;;;;;;8.32;2.25;;;10.10;89.60;;;;;;5095513;28;20471;-60
2022/04/07 01:48:34;;;;;;;6.35;2.20;;;10.10;89.70;;;;;;5099804;28;20030;-61
2022/04/07 01:51:02;;;;;;;3.78;1.80;;;10.00;89.70;;;;;;5098880;28;20028;-61
2022/04/07 01:53:28;;;;;;;6.50;2.13;;;10.00;89.80;;;;;;5076092;28;20024;-60
2022/04/07 01:55:54;;;;;;;7.25;2.00;;;10.00;89.90;;;;;;5096847;28;20031;-60
2022/04/07 01:58:20;;;;;;;6.53;2.38;;;10.00;90.00;;;;;;5102187;28;20102;-58
2022/04/07 02:00:46;;;;;;;4.32;1.90;;;10.00;90.00;;;;;;5103899;28;20027;-59
2022/04/07 02:03:12;;;;;;;9.40;2.72;;;10.00;90.00;;;;;;5101799;28;20104;-59
2022/04/07 02:05:38;;;;;;;8.02;2.33;;;10.00;90.00;;;;;;5072946;28;20024;-59
2022/04/07 02:08:04;;;;;;;6.93;2.10;;;10.00;90.00;;;;;;5086886;28;20364;-58
2022/04/07 02:10:31;;;;;;;7.25;2.53;;;9.90;90.00;;;;;;5125314;27;20016;-61
2022/04/07 02:12:58;;;;;;;8.23;2.13;;;10.00;89.90;;;;;;5106353;28;20023;-61
2022/04/07 02:15:26;;;;;;;6.07;2.47;;;10.00;89.90;;;;;;5110335;28;20047;-59
2022/04/07 02:17:52;;;;;;;7.00;2.30;;;10.00;89.80;;;;;;5109196;28;20770;-58
2022/04/07 02:20:19;;;;;;;6.50;2.00;;;10.00;89.80;;;;;;5089813;28;20040;-59
2022/04/07 02:22:44;;;;;;;7.07;2.50;;;10.00;89.90;;;;;;5101785;28;20061;-61
2022/04/07 02:25:10;;;;;;;6.38;2.38;;;10.00;89.90;;;;;;5087033;28;20028;-60
2022/04/07 02:27:38;;;;;;;11.07;2.67;;;10.00;90.00;;;;;;5098418;28;20038;-60
2022/04/07 02:30:10;;;;;;;6.60;2.30;;;10.00;90.00;;;;;;5094989;28;20020;-60
2022/04/07 02:32:36;;;;;;;7.45;2.85;;;10.00;90.10;;;;;;5110819;28;20070;-58
2022/04/07 02:35:02;;;;;;;4.80;2.40;;;10.00;90.10;;;;;;5096915;28;20462;-58
2022/04/07 02:37:27;;;;;;;5.93;2.97;;;10.00;90.10;;;;;;5086688;28;20048;-61
2022/04/07 02:39:53;;;;;;;4.97;2.47;;;10.00;90.20;;;;;;5094902;28;20059;-60
2022/04/07 02:42:19;;;;;;;11.82;3.20;;;10.00;90.20;;;;;;5092791;28;20538;-60
2022/04/07 02:44:46;;;;;;;8.25;2.97;;;9.90;90.50;;;;;;5093776;28;20016;-60
2022/04/07 02:47:11;;;;;;;8.23;2.80;;;9.90;90.20;;;;;;5095169;28;20103;-61
2022/04/07 02:49:40;;;;;;;11.77;3.17;;;9.90;90.20;;;;;;5104263;28;20087;-59
2022/04/07 02:52:10;;;;;;;8.32;3.00;;;9.90;90.40;;;;;;5112817;27;20142;-60
2022/04/07 02:54:36;;;;;;;10.52;3.08;;;9.90;90.40;;;;;;5092848;28;20093;-61
2022/04/07 02:57:03;;;;;;;6.85;2.85;;;9.90;90.40;;;;;;5072871;28;20062;-61
2022/04/07 02:59:29;;;;;;;14.15;3.28;;;9.90;90.50;;;;;;5105688;28;20024;-59
2022/04/07 03:01:56;;;;;;;7.28;2.78;;;9.90;90.40;;;;;;5091378;28;20113;-60
2022/04/07 03:04:24;;;;;;;8.50;2.95;;;9.90;90.50;;;;;;5096016;28;20110;-59
2022/04/07 03:06:51;;;;;;;8.32;2.85;;;9.90;90.40;;;;;;5090500;28;20020;-59
2022/04/07 03:09:20;;;;;;;10.63;3.13;;;9.90;90.30;;;;;;5092407;28;20060;-60
2022/04/07 03:11:46;;;;;;;6.50;2.80;;;9.90;90.30;;;;;;5090002;28;20056;-60
2022/04/07 03:14:15;;;;;;;13.23;3.90;;;9.90;90.20;;;;;;5109928;27;20066;-58
2022/04/07 03:16:41;;;;;;;11.18;3.40;;;9.90;90.10;;;;;;5093637;28;20032;-60
2022/04/07 03:19:07;;;;;;;10.77;3.22;;;9.90;89.90;;;;;;5086748;28;20453;-60
2022/04/07 03:21:33;;;;;;;11.68;3.53;;;9.90;89.70;;;;;;5087578;28;20032;-60
2022/04/07 03:23:59;;;;;;;14.82;3.70;;;10.00;89.70;;;;;;5102282;28;20120;-60
2022/04/07 03:26:24;;;;;;;12.05;3.40;;;10.00;89.20;;;;;;5073125;28;20032;-60
2022/04/07 03:28:50;;;;;;;10.40;3.40;;;10.00;89.20;;;;;;5090510;28;20111;-58
2022/04/07 03:31:16;;;;;;;11.43;3.40;;;10.00;88.90;;;;;;5093929;28;20036;-59
2022/04/07 03:33:41;;;;;;;10.68;2.92;;;10.00;88.70;;;;;;5102126;28;20035;-58
2022/04/07 03:36:07;;;;;;;11.60;2.70;;;10.00;88.70;;;;;;5101513;28;20101;-59
2022/04/07 03:38:33;;;;;;;9.95;3.10;;;10.10;89.20;;;;;;5090011;28;20479;-60
2022/04/07 03:40:59;;;;;;;11.20;3.28;;;10.10;88.50;;;;;;5100327;28;20036;-60
2022/04/07 03:43:24;;;;;;;13.02;3.20;;;10.10;88.30;;;;;;5091158;28;20360;-61
2022/04/07 03:45:50;;;;;;;10.35;2.47;;;10.10;87.80;;;;;;5083104;28;20031;-60
2022/04/07 03:48:16;;;;;;;10.55;2.85;;;10.10;87.70;;;;;;5066778;28;20062;-60
2022/04/07 03:50:41;;;;;;;8.38;2.70;;;10.10;87.60;;;;;;5082733;28;20114;-60
2022/04/07 03:53:07;;;;;;;10.00;2.83;;;10.10;87.60;;;;;;5085095;28;20475;-58
2022/04/07 03:55:34;;;;;;;11.30;2.80;;;10.10;87.80;;;;;;5091425;28;20028;-59
2022/04/07 03:57:59;;;;;;;12.25;3.00;;;10.10;87.90;;;;;;5088501;28;20795;-59
2022/04/07 04:00:28;;;;;;;10.05;2.72;;;10.10;88.20;;;;;;5097087;28;20028;-58
2022/04/07 04:02:54;;;;;;;12.63;3.58;;;10.00;88.50;;;;;;5097179;28;20071;-60
2022/04/07 04:05:20;;;;;;;8.75;2.65;;;10.00;88.80;;;;;;5089156;28;20055;-60
2022/04/07 04:07:45;;;;;;;11.00;2.92;;;10.00;89.10;;;;;;5086779;28;20020;-60
2022/04/07 04:10:11;;;;;;;13.68;2.50;;;10.00;89.30;;;;;;5089501;28;20032;-60
2022/04/07 04:12:37;;;;;;;11.55;3.63;;;10.00;89.20;;;;;;5087460;28;20032;-60
2022/04/07 04:15:04;;;;;;;10.85;2.90;;;10.00;89.10;;;;;;5086635;28;20074;-60
2022/04/07 04:17:31;;;;;;;11.57;2.58;;;10.00;88.90;;;;;;5090333;28;20024;-60
2022/04/07 04:19:57;;;;;;;11.35;3.28;;;9.90;88.80;;;;;;5097729;28;20071;-60
2022/04/07 04:22:23;;;;;;;12.27;2.35;;;10.00;88.80;;;;;;5097245;28;20478;-60
2022/04/07 04:24:49;;;;;;;10.23;2.78;;;10.00;88.80;;;;;;5104460;28;20059;-60
2022/04/07 04:27:14;;;;;;;13.23;3.05;;;10.00;88.60;;;;;;5104081;28;20039;-60
2022/04/07 04:29:42;;;;;;;13.98;2.80;;;10.00;88.40;;;;;;5072270;28;20016;-60
2022/04/07 04:32:09;;;;;;;13.25;2.50;;;10.00;88.20;;;;;;5092538;28;20475;-60
2022/04/07 04:34:35;;;;;;;11.95;3.13;;;10.00;88.00;;;;;;5088248;28;20553;-60
2022/04/07 04:37:01;;;;;;;10.48;2.70;;;10.00;87.90;;;;;;5088210;28;20040;-58
2022/04/07 04:39:27;;;;;;;9.80;2.45;;;10.00;88.00;;;;;;5087563;28;20032;-60
2022/04/07 04:41:52;;;;;;;10.70;2.30;;;10.00;87.50;;;;;;5070486;28;20407;-60
2022/04/07 04:44:18;;;;;;;11.13;2.50;;;10.00;87.50;;;;;;5083516;28;20028;-62
2022/04/07 04:46:44;;;;;;;11.10;2.88;;;10.00;87.20;;;;;;5098561;28;20189;-60
2022/04/07 04:49:09;;;;;;;8.45;2.40;;;10.00;87.10;;;;;;5080736;28;20028;-60
2022/04/07 04:51:35;;;;;;;12.20;2.40;;;10.10;86.70;;;;;;5073897;28;20468;-60
2022/04/07 04:54:01;;;;;;;9.57;2.10;;;10.10;86.90;;;;;;5072904;28;20419;-60
2022/04/07 04:56:27;;;;;;;9.85;2.45;;;10.10;86.70;;;;;;5091678;28;20497;-60
2022/04/07 04:58:54;;;;;;;9.32;1.90;;;10.00;86.40;;;;;;5092227;28;20028;-60
2022/04/07 05:01:20;;;;;;;9.90;1.98;;;10.10;86.20;;;;;;5089857;28;20484;-60
2022/04/07 05:03:45;;;;;;;11.50;3.08;;;10.10;86.00;;;;;;5090829;28;20020;-60
2022/04/07 05:06:11;;;;;;;7.60;2.40;;;10.10;85.90;;;;;;5089535;28;20039;-60
2022/04/07 05:08:37;;;;;;;6.15;2.70;;;10.10;85.20;;;;;;5093797;28;20031;-60
2022/04/07 05:11:02;;;;;;;7.72;2.33;;;10.20;85.20;;;;;;5107076;28;20047;-59
2022/04/07 05:13:28;;;;;;;7.63;2.53;;;10.20;85.20;;;;;;5091652;28;20435;-57
2022/04/07 05:16:31;;;;;;;9.43;2.13;;;10.20;84.20;;;;;;5081742;27;1325173;-58
2022/04/07 05:18:57;;;;;;;6.93;2.00;;;10.20;84.90;;;;;;5081820;28;20043;-58
2022/04/07 05:21:23;;;;;;;7.38;2.00;;;10.20;84.70;;;;;;5093317;28;20479;-60
2022/04/07 05:23:48;;;;;;;6.55;1.85;;;10.20;84.70;;;;;;5097018;28;20029;-60
2022/04/07 05:26:14;;;;;;;4.22;1.60;;;10.20;84.70;;;;;;5092485;28;20020;-60
2022/04/07 05:28:41;;;;;;;9.48;2.15;;;10.20;84.80;;;;;;5090632;28;20032;-61
2022/04/07 05:31:07;;;;;;;5.90;1.38;;;10.20;84.50;;;;;;5093223;28;20028;-60
2022/04/07 05:33:33;;;;;;;8.05;1.60;;;10.20;84.50;;;;;;5102124;28;20032;-60
2022/04/07 05:35:59;;;;;;;6.30;2.10;;;10.20;84.80;;;;;;5099319;28;20361;-61
2022/04/07 05:38:25;;;;;;;4.63;1.60;;;10.20;85.10;;;;;;5086191;28;20036;-60
2022/04/07 05:40:50;;;;;;;4.45;1.50;;;10.20;84.70;;;;;;5085676;28;20023;-61
2022/04/07 05:43:16;;;;;;;4.50;1.50;;;10.30;84.90;;;;;;5098680;28;20107;-61
2022/04/07 05:45:50;;;;;;;6.05;1.67;;;10.20;85.00;;;;;;5099262;28;20051;-61
2022/04/07 05:48:17;;;;;;;5.85;1.92;;;10.20;85.20;;;;;;5069199;28;20062;-61
2022/04/07 05:50:43;;;;;;;3.60;1.40;;;10.20;85.60;;;;;;5085793;28;20016;-60
2022/04/07 05:53:10;;;;;;;4.28;1.40;;;10.20;85.50;;;;;;5087197;28;20029;-60
2022/04/07 05:55:39;;;;;;;3.63;2.40;;;10.20;85.90;;;;;;5088354;28;20031;-61
2022/04/07 05:58:05;;;;;;;2.80;1.33;;;10.20;86.40;;;;;;5087884;28;20043;-60
2022/04/07 06:00:31;;;;;;;4.40;1.30;;;10.20;86.40;;;;;;5088452;28;20032;-60
2022/04/07 06:02:58;;;;;;;5.30;1.17;;;10.20;86.50;;;;;;5099649;28;20016;-60
2022/04/07 06:05:24;;;;;;;3.58;1.55;;;10.20;86.90;;;;;;5099700;28;20599;-60
2022/04/07 06:07:49;;;;;;;4.28;1.52;;;10.20;86.90;;;;;;5105709;28;20024;-60
2022/04/07 06:10:15;;;;;;;6.72;1.58;;;10.20;87.00;;;;;;5100454;28;20035;-60
2022/04/07 06:12:46;;;;;;;3.00;1.27;;;10.20;87.40;;;;;;5102763;28;20032;-60
2022/04/07 06:15:12;;;;;;;2.20;1.27;;;10.20;87.50;;;;;;5105134;28;20780;-60
2022/04/07 06:17:50;;;;;;;2.80;1.35;;;10.10;87.60;;;;;;5089144;28;20391;-60
2022/04/07 06:20:16;;;;;;;4.72;1.20;;;10.10;87.70;;;;;;5084902;28;20383;-60
2022/04/07 06:22:43;;;;;;;5.15;1.48;;;10.10;88.00;;;;;;5086097;28;20032;-60
2022/04/07 06:25:10;;;;;;;3.92;1.73;;;10.10;88.20;;;;;;5088165;28;20027;-58
2022/04/07 06:27:37;;;;;;;4.85;1.30;;;10.10;88.40;;;;;;5081413;28;20396;-59
2022/04/07 06:30:05;;;;;;;4.90;1.40;;;10.10;88.70;;;;;;5077203;28;20089;-58
2022/04/07 06:32:30;;;;;;;2.55;1.20;;;10.10;88.60;;;;;;5078764;28;20447;-58
2022/04/07 06:34:56;;;;;;;3.40;1.48;;;10.10;88.70;;;;;;5072312;28;20067;-58
2022/04/07 06:37:22;;;;;;;3.67;1.70;;;10.00;88.80;;;;;;5083421;28;20112;-60
2022/04/07 06:39:47;;;;;;;3.03;1.52;;;10.10;89.10;;;;;;5070769;28;20016;-58
2022/04/07 06:42:13;;;;;;;3.83;2.15;;;10.00;89.30;;;;;;5063064;28;20486;-58
2022/04/07 06:44:39;;;;;;;3.60;1.88;;;10.00;89.60;;;;;;5089118;28;20028;-58
2022/04/07 06:47:05;;;;;;;2.60;1.80;;;10.00;89.90;;;;;;5087357;28;20043;-58
2022/04/07 06:49:30;;;;;;;7.40;2.72;;;10.00;90.00;;;;;;5056385;28;20024;-58
2022/04/07 06:51:56;;;;;;;5.57;2.28;;;10.00;90.00;;;;;;5082794;28;20052;-58
2022/04/07 06:54:21;;;;;;;3.65;2.15;;;10.00;90.10;;;;;;5059526;28;20177;-58
2022/04/07 06:56:47;;;;;;;5.18;2.40;;;10.00;90.10;;;;;;5088950;28;20043;-58
2022/04/07 06:59:13;;;;;;;6.82;2.30;;;10.00;90.20;;;;;;5060707;28;20059;-58
2022/04/07 07:01:38;;;;;;;4.70;2.40;;;10.00;90.30;;;;;;5078409;28;20431;-59
2022/04/07 07:04:04;;;;;;;4.13;1.30;;;10.00;90.30;;;;;;5082433;28;20037;-58
2022/04/07 07:06:30;;;;;;;1.98;0.70;;;10.00;90.00;;;;;;5079246;28;20028;-59
2022/04/07 07:08:56;;;;;;;3.63;0.50;;;9.90;86.30;;;;;;5053910;28;20124;-60
2022/04/07 07:11:21;;;;;;;3.15;0.40;;;9.50;81.90;;;;;;5064579;28;20039;-60
2022/04/07 07:13:47;;;;;;;0.57;0.40;;;9.30;81.80;;;;;;5080613;28;20032;-60
2022/04/07 07:16:13;;;;;;;2.35;0.50;;;9.00;80.40;;;;;;5073875;28;20082;-60
2022/04/07 07:18:38;;;;;;;2.85;0.60;;;8.70;80.90;;;;;;5053670;28;20123;-60
2022/04/07 07:21:05;;;;;;;1.40;0.30;;;8.60;81.20;;;;;;5071768;28;20090;-60
2022/04/07 07:23:32;;;;;;;1.35;0.57;;;8.50;81.60;;;;;;5088352;28;20287;-60
2022/04/07 07:25:58;;;;;;;1.38;0.50;;;8.40;81.50;;;;;;5082530;28;20085;-60
2022/04/07 07:28:24;;;;;;;2.38;0.55;;;8.40;81.70;;;;;;5084759;28;20475;-60
2022/04/07 07:30:49;;;;;;;3.35;0.63;;;8.40;81.80;;;;;;5076498;28;20501;-60
2022/04/07 07:33:15;;;;;;;1.08;0.55;;;8.30;82.10;;;;;;5090422;28;20032;-60
2022/04/07 07:35:45;;;;;;;1.75;0.63;;;8.30;82.50;;;;;;5070095;28;20514;-61
2022/04/07 07:38:11;;;;;;;1.10;0.65;;;8.30;82.60;;;;;;5073660;28;20048;-61
2022/04/07 07:40:38;;;;;;;1.60;0.60;;;8.30;82.70;;;;;;5078467;28;20051;-61
2022/04/07 07:43:04;;;;;;;2.33;0.68;;;8.30;82.80;;;;;;5088109;28;20036;-61
2022/04/07 07:45:33;;;;;;;3.95;0.82;;;8.30;82.80;;;;;;5085425;28;20059;-61
2022/04/07 07:47:59;;;;;;;2.95;0.70;;;8.30;82.90;;;;;;5075934;28;20123;-61
2022/04/07 07:50:24;;;;;;;2.65;0.77;;;8.30;83.00;;;;;;5072642;28;20047;-59
2022/04/07 07:52:50;;;;;;;2.63;0.82;;;8.30;83.20;;;;;;5076475;28;20462;-59
2022/04/07 07:55:17;;;;;;;3.60;0.70;;;8.30;83.20;;;;;;5082731;28;20093;-60
2022/04/07 07:57:43;;;;;;;3.47;0.70;;;8.30;83.30;;;;;;5051937;28;20416;-59
2022/04/07 08:00:10;;;;;;;3.50;0.88;;;8.30;83.40;;;;;;5072784;28;20095;-60
2022/04/07 08:02:38;;;;;;;2.30;0.80;;;8.20;83.60;;;;;;5068327;28;20496;-59
2022/04/07 08:05:05;;;;;;;3.55;1.00;;;8.20;83.70;;;;;;5069810;28;20066;-61
2022/04/07 08:07:32;;;;;;;2.33;0.68;;;8.20;83.70;;;;;;5055697;28;20070;-61
2022/04/07 08:09:58;;;;;;;5.10;1.27;;;8.20;83.90;;;;;;5058100;28;20551;-61
2022/04/07 08:12:24;;;;;;;2.53;1.00;;;8.20;84.00;;;;;;5074738;28;20048;-61
2022/04/07 08:14:50;;;;;;;2.38;0.85;;;8.10;84.20;;;;;;5073483;28;20040;-61
2022/04/07 08:17:16;;;;;;;2.47;0.80;;;8.10;84.50;;;;;;5057178;28;20119;-61
2022/04/07 08:19:42;;;;;;;2.40;1.10;;;8.10;84.60;;;;;;5062030;28;20036;-59
2022/04/07 08:22:08;;;;;;;4.97;0.98;;;8.10;84.90;;;;;;5035696;28;20100;-61
2022/04/07 08:24:34;;;;;;;3.28;1.10;;;8.10;85.00;;;;;;5054947;28;20087;-61
2022/04/07 08:27:04;;;;;;;3.17;0.80;;;8.10;84.80;;;;;;5055844;28;20761;-61
2022/04/07 08:29:30;;;;;;;1.90;0.73;;;8.10;84.90;;;;;;5073742;28;20115;-61
2022/04/07 08:31:56;;;;;;;2.22;0.70;;;8.10;85.10;;;;;;5072547;28;20169;-62
2022/04/07 08:34:22;;;;;;;3.55;1.00;;;8.10;85.20;;;;;;5072797;28;20115;-62
2022/04/07 08:36:48;;;;;;;4.30;1.00;;;8.10;85.30;;;;;;5074617;28;20495;-61
2022/04/07 08:39:14;;;;;;;3.42;0.70;;;8.10;85.30;;;;;;5075945;28;20071;-62
2022/04/07 08:41:44;;;;;;;3.30;1.00;;;8.20;86.00;;;;;;5057122;28;20034;-60
2022/04/07 08:44:10;;;;;;;4.90;1.40;;;8.20;85.90;;;;;;5058163;28;20089;-60
2022/04/07 08:46:35;;;;;;;4.80;1.30;;;8.30;85.90;;;;;;5073307;28;20438;-60
2022/04/07 08:49:04;;;;;;;2.80;1.05;;;8.40;86.00;;;;;;5076257;28;20112;-60
2022/04/07 08:51:31;;;;;;;4.10;1.33;;;8.40;86.10;;;;;;5077749;28;20165;-59
2022/04/07 08:53:57;;;;;;;4.10;1.40;;;8.50;86.20;;;;;;5053931;28;20036;-62
2022/04/07 08:56:23;;;;;;;5.55;1.35;;;8.50;86.20;;;;;;5076881;28;20032;-61
2022/04/07 08:58:50;;;;;;;7.35;1.73;;;8.60;86.60;;;;;;5073252;28;20059;-62
2022/04/07 09:01:16;;;;;;;5.72;1.30;;;8.70;86.70;;;;;;5077413;28;20463;-60
2022/04/07 09:03:43;;;;;;;2.97;1.17;;;8.60;87.00;;;;;;5074390;28;20128;-60
2022/04/07 09:06:09;;;;;;;3.85;1.40;;;8.80;87.50;;;;;;5077043;28;20543;-60
2022/04/07 09:08:40;;;;;;;5.18;1.35;;;9.00;87.90;;;;;;5053594;28;20028;-60
2022/04/07 09:11:09;;;;;;;3.67;1.13;;;9.10;88.00;;;;;;5060103;28;20251;-60
2022/04/07 09:13:44;;;;;;;3.22;1.15;;;9.20;87.20;;;;;;5073431;28;20076;-62
2022/04/07 09:16:13;;;;;;;6.13;1.55;;;9.20;86.70;;;;;;5063083;28;20052;-61
2022/04/07 09:18:39;;;;;;;3.15;1.35;;;9.30;87.10;;;;;;5067649;28;20023;-60
2022/04/07 09:21:06;;;;;;;2.92;1.15;;;9.40;87.20;;;;;;5085105;28;20056;-60
2022/04/07 09:23:39;;;;;;;3.22;1.10;;;9.50;87.00;;;;;;5082098;28;20027;-59
2022/04/07 09:26:05;;;;;;;;;;;9.60;86.80;;;;;;5081326;28;20509;-61
2022/04/07 09:28:32;;;;;;;4.70;1.25;;;9.70;86.80;;;;;;5084521;28;19904;-62
2022/04/07 09:30:59;;;;;;;5.38;1.05;;;9.70;86.60;;;;;;5074526;28;20080;-62
2022/04/07 09:33:26;;;;;;;7.85;1.38;;;9.70;86.60;;;;;;5064692;28;20385;-61
2022/04/07 09:36:07;;;;;;;4.10;1.30;;;9.70;86.20;;;;;;5080970;28;20024;-62
2022/04/07 09:38:36;;;;;;;3.90;1.05;;;9.70;86.10;;;;;;5072232;28;20569;-61
2022/04/07 09:41:04;;;;;;;4.47;1.30;;;9.70;85.90;;;;;;5078341;28;20024;-60
2022/04/07 09:43:46;;;;;;;5.20;0.80;;;9.80;85.40;;;;;;5073767;28;20036;-60
2022/04/07 09:46:19;;;;;;;3.35;1.17;;;9.80;85.80;;;;;;5081965;28;20604;-60
2022/04/07 09:49:07;;;;;;;10.75;1.67;;;9.90;84.60;;;;;;5064472;28;20374;-61
2022/04/07 09:51:50;;;;;;;6.35;1.50;;;9.90;84.20;;;;;;5074381;28;20054;-62
2022/04/07 09:54:17;;;;;;;5.28;1.38;;;9.90;84.10;;;;;;5079475;28;20075;-62
2022/04/07 09:56:46;;;;;;;3.83;1.10;;;9.90;83.40;;;;;;5057066;28;20024;-61
2022/04/07 09:59:14;;;;;;;7.47;1.45;;;10.00;83.60;;;;;;5073892;28;20493;-60
2022/04/07 10:01:43;;;;;;;5.25;1.30;;;10.00;82.50;;;;;;5077456;28;20025;-62
2022/04/07 10:04:09;;;;;;;3.53;1.05;;;10.10;82.50;;;;;;5088423;28;20075;-62
2022/04/07 10:06:37;;;;;;;5.35;1.20;;;10.10;82.30;;;;;;5069257;28;20084;-61
2022/04/07 10:09:07;;;;;;;4.97;1.20;;;10.20;80.60;;;;;;5086195;28;20462;-61
2022/04/07 10:11:32;;;;;;;7.70;1.00;;;10.40;80.70;;;;;;5083549;28;20592;-61
2022/04/07 10:13:59;;;;;;;5.40;1.13;;;10.50;80.20;;;;;;5053424;28;20107;-60
2022/04/07 10:16:26;;;;;;;3.85;1.15;;;10.70;78.80;;;;;;5082730;28;20059;-60
2022/04/07 10:19:09;;;;;;;7.35;1.48;;;10.80;77.50;;;;;;5068217;28;20135;-60
2022/04/07 10:21:55;;;;;;;6.05;1.27;;;10.90;77.30;;;;;;5080620;28;20038;-60
2022/04/07 10:24:36;;;;;;;5.65;1.08;;;11.00;78.00;;;;;;5075436;28;20432;-59
2022/04/07 10:27:06;;;;;;;5.43;1.27;;;11.10;78.00;;;;;;5088087;28;20028;-58
2022/04/07 10:29:32;;;;;;;5.38;1.45;;;11.20;77.10;;;;;;5087403;28;20078;-59
2022/04/07 10:32:10;;;;;;;5.07;1.20;;;11.10;73.20;;;;;;5081046;28;20032;-60
2022/04/07 10:34:36;;;;;;;6.82;1.77;;;11.00;72.80;;;;;;5078243;28;20028;-61
2022/04/07 10:37:08;;;;;;;4.30;1.10;;;11.00;72.70;;;;;;5082300;28;20048;-61
2022/04/07 10:39:33;;;;;;;6.22;1.10;;;11.00;71.40;;;;;;5082963;28;20035;-61
2022/04/07 10:42:00;;;;;;;5.88;1.23;;;11.00;70.20;;;;;;5081425;28;20372;-61
2022/04/07 10:44:27;;;;;;;3.78;1.23;;;11.10;69.80;;;;;;5083396;28;20142;-61
2022/04/07 10:47:15;;;;;;;4.47;1.13;;;11.30;67.70;;;;;;5076769;28;20453;-61
2022/04/07 10:49:47;;;;;;;7.78;1.50;;;11.40;67.20;;;;;;5079700;28;20025;-60
2022/04/07 10:52:26;;;;;;;5.20;1.38;;;11.50;67.70;;;;;;5077626;28;20046;-60
2022/04/07 10:55:11;;;;;;;7.13;1.50;;;11.50;66.60;;;;;;5069305;28;20020;-61
2022/04/07 10:58:10;;;;;;;4.70;1.20;;;11.50;67.00;;;;;;5080491;28;20582;-59
2022/04/07 11:00:38;;;;;;;8.35;1.50;;;11.50;67.60;;;;;;5081787;28;20032;-60
2022/04/07 11:03:18;;;;;;;8.15;1.90;;;11.60;66.70;;;;;;5089589;28;20443;-61
2022/04/07 11:05:58;;;;;;;8.35;1.58;;;11.50;64.40;;;;;;5080631;28;20036;-60
2022/04/07 11:08:23;;;;;;;10.82;2.42;;;11.30;65.00;;;;;;5083982;28;20032;-60
2022/04/07 11:10:50;;;;;;;5.85;1.70;;;11.10;65.60;;;;;;5081256;28;20059;-60
2022/04/07 11:15:49;;;;;;;8.75;1.38;;;11.30;66.10;;;;;;5121172;27;20401;-61
2022/04/07 11:21:50;;;;;;;8.93;1.80;;;10.90;65.40;;;;;;5053764;28;20427;-60
2022/04/07 11:24:26;;;;;;;9.65;1.77;;;10.80;67.20;;;;;;5059667;28;20025;-61
2022/04/07 11:26:54;;;;;;;10.85;2.15;;;10.80;66.90;;;;;;5055885;28;20029;-63
2022/04/07 11:29:33;;;;;;;14.43;2.20;;;10.70;67.00;;;;;;5051510;28;20020;-58
2022/04/07 11:32:07;;;;;;;11.30;1.90;;;10.70;67.30;;;;;;5051805;28;20058;-60
2022/04/07 11:34:38;;;;;;;10.25;2.47;;;10.70;67.50;;;;;;5046042;28;20038;-61
2022/04/07 11:37:11;;;;;;;10.95;2.03;;;10.70;67.60;;;;;;5056673;28;20072;-60
2022/04/07 11:39:55;;;;;;;11.45;2.30;;;10.70;67.80;;;;;;5049751;28;20033;-60
2022/04/07 11:42:22;;;;;;;8.63;2.08;;;10.70;67.60;;;;;;5056688;28;20571;-61
2022/04/07 11:44:48;;;;;;;9.05;2.00;;;10.70;66.90;;;;;;5058949;28;20033;-62
2022/04/07 11:47:24;;;;;;;8.95;2.20;;;10.70;67.10;;;;;;5061497;28;20086;-61
2022/04/07 11:49:50;;;;;;;12.60;1.88;;;10.70;66.90;;;;;;5055107;28;20033;-60
2022/04/07 11:52:21;;;;;;;8.25;1.95;;;10.80;65.80;;;;;;5064427;28;20040;-61
2022/04/07 11:54:47;;;;;;;13.00;2.17;;;10.70;65.30;;;;;;5062787;28;20047;-60
2022/04/07 11:57:13;;;;;;;9.68;2.45;;;10.70;65.80;;;;;;5063964;28;20037;-60
2022/04/07 11:59:38;;;;;;;7.05;1.60;;;10.80;65.80;;;;;;5065549;28;20112;-61
2022/04/07 12:02:07;;;;;;;9.07;1.95;;;10.90;65.00;;;;;;5061897;28;20021;-61
2022/04/07 12:04:34;;;;;;;11.85;2.60;;;10.90;64.50;;;;;;5057817;28;20064;-61
2022/04/07 12:08:15;;;;;;;9.27;2.00;;;10.90;64.50;;;;;;5112740;27;20416;-58
2022/04/07 12:10:43;;;;;;;10.15;2.13;;;10.90;64.90;;;;;;5126100;27;20124;-59
2022/04/07 12:13:09;;;;;;;10.07;1.95;;;11.00;65.10;;;;;;5114632;28;20027;-59
2022/04/07 12:15:36;;;;;;;10.35;2.30;;;11.00;64.20;;;;;;5121456;27;20027;-59
2022/04/07 12:18:06;;;;;;;9.93;2.28;;;11.00;64.30;;;;;;5108812;28;20030;-61
2022/04/07 12:20:34;;;;;;;9.85;1.92;;;11.10;64.40;;;;;;5107021;28;20028;-60
2022/04/07 12:23:09;;;;;;;7.40;2.08;;;11.20;64.70;;;;;;5116319;28;20055;-59
2022/04/07 12:25:42;;;;;;;10.48;2.00;;;11.30;64.30;;;;;;5113386;28;20042;-61
2022/04/07 12:28:13;;;;;;;10.93;2.00;;;11.40;64.30;;;;;;5105840;28;20032;-59
2022/04/07 12:30:49;;;;;;;11.63;2.25;;;11.40;62.80;;;;;;5112995;28;20038;-59
2022/04/07 12:33:46;;;;;;;10.93;2.38;;;11.30;63.30;;;;;;5120258;27;20044;-59
2022/04/07 12:36:30;;;;;;;13.30;2.47;;;11.20;63.30;;;;;;5107198;27;20439;-59
2022/04/07 12:39:10;;;;;;;10.80;2.45;;;11.20;63.70;;;;;;5115630;27;20528;-60
2022/04/07 12:41:36;;;;;;;9.68;2.38;;;11.20;63.70;;;;;;5106063;27;20576;-60
2022/04/07 12:44:02;;;;;;;9.77;1.92;;;11.20;63.90;;;;;;5118058;27;20027;-59
2022/04/07 12:46:54;;;;;;;13.15;2.22;;;11.10;63.20;;;;;;5111129;27;20038;-59
2022/04/07 12:49:23;;;;;;;11.60;1.88;;;11.20;62.60;;;;;;5112793;27;20031;-59
2022/04/07 12:52:04;;;;;;;9.75;1.92;;;11.20;62.60;;;;;;5125997;27;20019;-59
2022/04/07 12:54:30;;;;;;;8.65;1.90;;;11.20;62.70;;;;;;5121744;27;20031;-61
2022/04/07 12:57:12;;;;;;;10.02;2.20;;;11.30;62.50;;;;;;5126505;27;20432;-59
2022/04/07 12:59:44;;;;;;;10.38;2.45;;;11.50;61.30;;;;;;5122541;27;20027;-60
2022/04/07 13:02:09;;;;;;;7.25;1.70;;;11.50;61.20;;;;;;5126010;27;20031;-60